createdAt,value
2023-03-06T00:13:32.175Z,75.52
2023-03-06T00:16:02.954Z,75.52
2023-03-06T00:18:30.779Z,75.59
2023-03-06T00:20:58.758Z,75.62
2023-03-06T00:23:27.635Z,75.61
2023-03-06T00:25:55.496Z,75.53
2023-03-06T00:28:23.539Z,75.83
2023-03-06T00:30:51.417Z,75.82
2023-03-06T00:33:19.280Z,75.84
2023-03-06T00:35:47.037Z,75.86
2023-03-06T00:38:15.007Z,75.90
2023-03-06T00:40:42.978Z,76.08
2023-03-06T00:43:10.963Z,76.06
2023-03-06T00:45:38.782Z,76.11
2023-03-06T00:48:06.632Z,76.22
2023-03-06T00:50:35.321Z,76.28
2023-03-06T00:53:03.154Z,76.25
2023-03-06T00:55:31.309Z,76.16
2023-03-06T00:57:59.092Z,76.05
2023-03-06T01:00:27.934Z,76.16
2023-03-06T01:02:56.111Z,76.03
2023-03-06T01:05:24.840Z,75.95
2023-03-06T01:07:52.712Z,76.05
2023-03-06T01:10:20.560Z,76.11
2023-03-06T01:12:48.992Z,76.12
2023-03-06T01:15:16.744Z,76.38
2023-03-06T01:17:44.777Z,76.26
2023-03-06T01:20:17.629Z,76.34
2023-03-06T01:22:45.454Z,76.32
2023-03-06T01:25:13.278Z,76.43
2023-03-06T01:27:41.329Z,76.40
2023-03-06T01:30:11.788Z,76.34
2023-03-06T01:32:39.714Z,76.45
2023-03-06T01:35:08.280Z,76.44
2023-03-06T01:37:36.873Z,76.35
2023-03-06T01:40:05.299Z,76.29
2023-03-06T01:42:33.099Z,76.33
2023-03-06T01:45:02.499Z,76.30
2023-03-06T01:47:30.268Z,76.51
2023-03-06T01:50:00.159Z,76.41
2023-03-06T01:52:33.177Z,76.42
2023-03-06T01:55:03.173Z,76.61
2023-03-06T01:57:37.937Z,76.63
2023-03-06T02:00:08.399Z,76.72
2023-03-06T02:02:45.251Z,76.77
2023-03-06T02:05:13.262Z,76.66
2023-03-06T02:07:42.408Z,76.64
2023-03-06T02:10:14.629Z,76.74
2023-03-06T02:12:43.827Z,76.88
2023-03-06T02:15:12.540Z,76.77
2023-03-06T02:17:41.678Z,76.83
2023-03-06T02:20:12.255Z,76.79
2023-03-06T02:22:50.146Z,76.89
2023-03-06T02:25:32.920Z,76.88
2023-03-06T02:28:01.431Z,76.71
2023-03-06T02:30:29.318Z,76.70
2023-03-06T02:32:57.523Z,76.74
2023-03-06T02:35:33.909Z,76.83
2023-03-06T02:38:04.622Z,76.82
2023-03-06T02:40:32.562Z,76.93
2023-03-06T02:43:01.726Z,76.81
2023-03-06T02:45:35.724Z,76.86
2023-03-06T02:48:04.282Z,76.94
2023-03-06T02:50:32.333Z,76.89
2023-03-06T02:53:00.054Z,76.86
2023-03-06T02:55:27.849Z,76.97
2023-03-06T02:57:55.804Z,77.11
2023-03-06T03:00:24.379Z,76.98
2023-03-06T03:02:52.830Z,77.19
2023-03-06T03:05:21.378Z,77.07
2023-03-06T03:07:54.293Z,77.16
2023-03-06T03:10:22.083Z,77.14
2023-03-06T03:12:51.073Z,77.26
2023-03-06T03:15:19.242Z,77.44
2023-03-06T03:17:47.017Z,77.49
2023-03-06T03:20:17.012Z,77.68
2023-03-06T03:22:51.743Z,77.63
2023-03-06T03:25:20.098Z,77.72
2023-03-06T03:27:48.266Z,77.77
2023-03-06T03:30:16.317Z,77.74
2023-03-06T03:32:44.380Z,77.85
2023-03-06T03:35:13.053Z,77.95
2023-03-06T03:37:41.648Z,77.92
2023-03-06T03:40:10.489Z,78.00
2023-03-06T03:42:38.538Z,77.99
2023-03-06T03:45:06.734Z,77.99
2023-03-06T03:47:34.555Z,78.08
2023-03-06T03:50:03.735Z,78.20
2023-03-06T03:52:31.608Z,78.08
2023-03-06T03:54:59.743Z,78.06
2023-03-06T03:57:28.122Z,77.99
2023-03-06T03:59:56.602Z,78.12
2023-03-06T04:02:41.576Z,78.14
2023-03-06T04:05:16.174Z,78.10
2023-03-06T04:07:44.105Z,78.19
2023-03-06T04:10:12.515Z,78.13
2023-03-06T04:12:40.685Z,78.05
2023-03-06T04:15:10.060Z,78.21
2023-03-06T04:17:38.333Z,78.26
2023-03-06T04:20:08.297Z,78.28
2023-03-06T04:22:37.488Z,78.22
2023-03-06T04:25:05.932Z,78.09
2023-03-06T04:27:33.770Z,78.16
2023-03-06T04:30:01.646Z,78.12
2023-03-06T04:32:30.726Z,78.13
2023-03-06T04:34:59.133Z,78.10
2023-03-06T04:37:28.922Z,78.10
2023-03-06T04:39:57.714Z,77.93
2023-03-06T04:42:25.474Z,77.97
2023-03-06T04:44:53.713Z,78.06
2023-03-06T04:47:21.543Z,77.90
2023-03-06T04:49:49.349Z,77.70
2023-03-06T04:52:17.112Z,77.68
2023-03-06T04:54:46.090Z,77.66
2023-03-06T04:57:14.300Z,77.55
2023-03-06T04:59:42.134Z,77.48
2023-03-06T05:02:09.967Z,77.53
2023-03-06T05:04:37.731Z,77.49
2023-03-06T05:07:05.571Z,77.32
2023-03-06T05:09:33.789Z,77.37
2023-03-06T05:12:01.970Z,77.29
2023-03-06T05:14:30.434Z,77.16
2023-03-06T05:16:58.295Z,77.11
2023-03-06T05:19:26.064Z,77.12
2023-03-06T05:21:53.833Z,77.19
2023-03-06T05:24:21.591Z,77.11
2023-03-06T05:26:49.787Z,76.91
2023-03-06T05:29:17.593Z,76.95
2023-03-06T05:31:45.750Z,76.98
2023-03-06T05:34:14.421Z,77.00
2023-03-06T05:36:42.875Z,76.93
2023-03-06T05:39:10.606Z,76.75
2023-03-06T05:41:38.351Z,76.67
2023-03-06T05:44:06.166Z,76.66
2023-03-06T05:46:33.892Z,76.46
2023-03-06T05:49:01.876Z,76.50
2023-03-06T05:51:29.707Z,76.42
2023-03-06T05:53:57.452Z,76.46
2023-03-06T05:56:25.292Z,76.35
2023-03-06T05:58:53.065Z,76.30
2023-03-06T06:01:21.142Z,76.10
2023-03-06T06:03:49.036Z,75.96
2023-03-06T06:06:17.014Z,75.86
2023-03-06T06:08:44.754Z,75.77
2023-03-06T06:11:13.169Z,75.78
2023-03-06T06:13:40.926Z,75.61
2023-03-06T06:16:09.766Z,75.59
2023-03-06T06:18:41.035Z,75.59
2023-03-06T06:21:10.374Z,75.44
2023-03-06T06:23:38.202Z,75.42
2023-03-06T06:26:06.852Z,75.34
2023-03-06T06:28:35.132Z,75.16
2023-03-06T06:31:12.743Z,75.10
2023-03-06T06:33:41.049Z,75.10
2023-03-06T06:36:15.873Z,74.98
2023-03-06T06:38:43.701Z,74.81
2023-03-06T06:41:38.988Z,74.51
2023-03-06T06:43:59.627Z,74.49
2023-03-06T06:47:10.868Z,74.70
2023-03-06T06:49:16.350Z,74.76
2023-03-06T06:51:44.170Z,74.53
2023-03-06T06:54:12.219Z,74.13
2023-03-06T06:56:40.118Z,74.06
2023-03-06T06:59:16.460Z,74.00
2023-03-06T07:02:44.689Z,74.01
2023-03-06T07:05:12.800Z,74.23
2023-03-06T07:07:40.721Z,74.10
2023-03-06T07:10:13.809Z,74.04
2023-03-06T07:12:42.171Z,74.35
2023-03-06T07:15:13.562Z,74.46
2023-03-06T07:17:41.451Z,74.33
2023-03-06T07:20:10.625Z,74.46
2023-03-06T07:22:50.480Z,73.87
2023-03-06T07:25:20.373Z,73.28
2023-03-06T07:27:53.886Z,73.12
2023-03-06T07:30:23.352Z,72.97
2023-03-06T07:32:56.244Z,73.10
2023-03-06T07:35:25.729Z,72.97
2023-03-06T07:37:53.946Z,72.72
2023-03-06T07:40:22.644Z,72.78
2023-03-06T07:42:54.802Z,72.80
2023-03-06T07:45:27.164Z,72.77
2023-03-06T07:47:55.097Z,72.45
2023-03-06T07:50:23.052Z,72.40
2023-03-06T07:52:51.393Z,72.41
2023-03-06T07:55:19.675Z,72.36
2023-03-06T07:57:50.706Z,72.24
2023-03-06T08:00:19.233Z,72.34
2023-03-06T08:02:47.306Z,72.23
2023-03-06T08:05:17.252Z,72.20
2023-03-06T08:07:45.775Z,72.07
2023-03-06T08:10:16.775Z,72.19
2023-03-06T08:12:44.858Z,72.04
2023-03-06T08:15:13.933Z,71.91
2023-03-06T08:17:41.893Z,71.62
2023-03-06T08:20:10.799Z,71.68
2023-03-06T08:22:39.160Z,71.43
2023-03-06T08:25:08.177Z,71.48
2023-03-06T08:27:36.725Z,71.35
2023-03-06T08:30:09.456Z,71.26
2023-03-06T08:32:37.890Z,70.96
2023-03-06T08:35:06.205Z,70.63
2023-03-06T08:37:34.141Z,70.79
2023-03-06T08:40:04.771Z,70.51
2023-03-06T08:42:32.841Z,70.53
2023-03-06T08:45:00.753Z,70.66
2023-03-06T08:47:29.019Z,70.38
2023-03-06T08:50:00.183Z,70.20
2023-03-06T08:52:28.546Z,70.21
2023-03-06T08:54:57.976Z,70.15
2023-03-06T08:57:25.860Z,69.90
2023-03-06T08:59:53.742Z,69.76
2023-03-06T09:02:21.622Z,69.96
2023-03-06T09:04:49.559Z,69.99
2023-03-06T09:07:17.455Z,69.76
2023-03-06T09:09:45.415Z,69.52
2023-03-06T09:12:13.262Z,69.44
2023-03-06T09:14:41.192Z,69.11
2023-03-06T09:17:09.083Z,68.93
2023-03-06T09:19:37.703Z,68.66
2023-03-06T09:22:05.644Z,68.61
2023-03-06T09:24:33.644Z,68.68
2023-03-06T09:27:02.163Z,68.43
2023-03-06T09:29:30.103Z,68.12
2023-03-06T09:31:58.603Z,68.01
2023-03-06T09:34:27.764Z,67.89
2023-03-06T09:36:57.651Z,67.89
2023-03-06T09:39:26.477Z,67.76
2023-03-06T09:41:57.247Z,67.69
2023-03-06T09:44:29.421Z,67.38
2023-03-06T09:47:18.413Z,67.29
2023-03-06T09:50:11.757Z,67.23
2023-03-06T09:53:18.757Z,67.38
2023-03-06T09:55:56.784Z,67.19
2023-03-06T09:58:26.904Z,66.92
2023-03-06T10:01:03.396Z,66.54
2023-03-06T10:03:39.640Z,66.37
2023-03-06T10:06:13.120Z,66.54
2023-03-06T10:08:52.520Z,66.75
2023-03-06T10:11:28.239Z,66.49
2023-03-06T10:14:39.376Z,65.97
2023-03-06T10:17:20.305Z,66.13
2023-03-06T10:19:49.371Z,66.15
2023-03-06T10:22:29.184Z,66.01
2023-03-06T10:25:05.274Z,65.77
2023-03-06T10:27:44.960Z,65.48
2023-03-06T10:30:26.514Z,65.37
2023-03-06T10:32:59.842Z,65.52
2023-03-06T10:35:52.154Z,65.21
2023-03-06T10:38:28.068Z,65.24
2023-03-06T10:41:18.110Z,65.03
2023-03-06T10:44:06.675Z,65.00
2023-03-06T10:46:42.408Z,65.01
2023-03-06T10:49:34.886Z,64.70
2023-03-06T10:52:06.786Z,64.36
2023-03-06T10:54:41.276Z,64.26
2023-03-06T10:57:20.583Z,64.12
2023-03-06T10:59:57.877Z,64.14
2023-03-06T11:02:38.669Z,64.08
2023-03-06T11:05:19.724Z,63.85
2023-03-06T11:07:56.829Z,63.76
2023-03-06T11:10:25.294Z,63.56
2023-03-06T11:13:07.559Z,63.61
2023-03-06T11:15:35.596Z,63.67
2023-03-06T11:18:40.656Z,63.73
2023-03-06T11:21:31.446Z,63.45
2023-03-06T11:24:19.998Z,63.39
2023-03-06T11:26:58.377Z,63.19
2023-03-06T11:29:36.827Z,63.01
2023-03-06T11:32:44.099Z,63.06
2023-03-06T11:35:19.352Z,62.90
2023-03-06T11:37:58.326Z,62.62
2023-03-06T11:40:48.608Z,62.54
2023-03-06T11:43:38.230Z,62.56
2023-03-06T11:46:22.872Z,62.24
2023-03-06T11:49:13.740Z,62.35
2023-03-06T11:51:50.398Z,62.10
2023-03-06T11:54:18.411Z,62.11
2023-03-06T11:56:48.997Z,62.13
2023-03-06T11:59:38.310Z,61.94
2023-03-06T12:02:27.453Z,61.46
2023-03-06T12:05:14.237Z,61.48
2023-03-06T12:07:57.553Z,61.64
2023-03-06T12:10:38.636Z,61.60
2023-03-06T12:13:40.038Z,61.60
2023-03-06T12:16:35.972Z,61.57
2023-03-06T12:19:25.311Z,61.63
2023-03-06T12:22:17.865Z,61.65
2023-03-06T12:24:55.453Z,61.76
2023-03-06T12:28:15.758Z,61.41
2023-03-06T12:31:02.557Z,61.32
2023-03-06T12:33:43.177Z,61.12
2023-03-06T12:36:25.920Z,60.74
2023-03-06T12:39:03.186Z,60.55
2023-03-06T12:41:43.376Z,60.80
2023-03-06T12:44:26.965Z,60.69
2023-03-06T12:47:01.899Z,60.52
2023-03-06T12:49:38.642Z,60.67
2023-03-06T12:52:18.688Z,60.46
2023-03-06T12:54:50.426Z,60.20
2023-03-06T12:57:18.338Z,60.04
2023-03-06T12:59:48.784Z,59.94
2023-03-06T13:02:49.543Z,60.08
2023-03-06T13:05:26.860Z,59.74
2023-03-06T13:08:31.062Z,59.65
2023-03-06T13:11:23.676Z,59.54
2023-03-06T13:13:51.608Z,59.52
2023-03-06T13:16:45.670Z,59.33
2023-03-06T13:19:20.666Z,59.10
2023-03-06T13:21:54.619Z,59.03
2023-03-06T13:24:25.526Z,58.98
2023-03-06T13:26:57.792Z,58.97
2023-03-06T13:29:38.017Z,59.18
2023-03-06T13:32:15.165Z,59.02
2023-03-06T13:34:46.958Z,58.93
2023-03-06T13:37:18.580Z,58.92
2023-03-06T13:39:52.288Z,59.04
2023-03-06T13:42:27.905Z,58.60
2023-03-06T13:44:58.354Z,58.50
2023-03-06T13:48:15.562Z,58.26
2023-03-06T13:50:39.946Z,58.42
2023-03-06T13:53:37.828Z,58.21
2023-03-06T13:56:17.906Z,58.07
2023-03-06T13:59:07.868Z,57.87
2023-03-06T14:02:12.516Z,57.89
2023-03-06T14:04:57.570Z,57.87
2023-03-06T14:07:35.782Z,57.83
2023-03-06T14:10:20.882Z,57.86
2023-03-06T14:12:48.718Z,57.74
2023-03-06T14:15:18.948Z,57.82
2023-03-06T14:17:59.074Z,57.66
2023-03-06T14:21:01.050Z,57.70
2023-03-06T14:23:35.699Z,57.65
2023-03-06T14:26:03.634Z,57.53
2023-03-06T14:28:32.960Z,57.45
2023-03-06T14:31:03.523Z,57.57
2023-03-06T14:33:50.354Z,57.44
2023-03-06T14:36:21.625Z,57.20
2023-03-06T14:39:02.583Z,56.90
2023-03-06T14:41:33.613Z,56.59
2023-03-06T14:44:22.661Z,56.53
2023-03-06T14:46:56.432Z,56.71
2023-03-06T14:49:26.334Z,56.60
2023-03-06T14:52:00.544Z,56.39
2023-03-06T14:54:31.663Z,55.91
2023-03-06T14:57:13.206Z,55.96
2023-03-06T14:59:47.482Z,56.01
2023-03-06T15:02:22.815Z,55.98
2023-03-06T15:05:13.767Z,55.93
2023-03-06T15:07:42.797Z,55.91
2023-03-06T15:10:22.559Z,56.09
2023-03-06T15:12:50.534Z,55.62
2023-03-06T15:15:18.572Z,55.62
2023-03-06T15:17:47.621Z,55.77
2023-03-06T15:20:53.722Z,55.69
2023-03-06T15:23:34.309Z,55.44
2023-03-06T15:26:29.632Z,55.33
2023-03-06T15:29:08.962Z,55.37
2023-03-06T15:31:39.751Z,55.68
2023-03-06T15:34:07.871Z,55.89
2023-03-06T15:36:38.775Z,56.06
2023-03-06T15:39:29.966Z,56.12
2023-03-06T15:42:00.436Z,56.03
2023-03-06T15:44:32.428Z,55.83
2023-03-06T15:47:08.476Z,56.02
2023-03-06T15:49:38.867Z,55.91
2023-03-06T15:52:07.583Z,55.89
2023-03-06T15:54:36.466Z,55.94
2023-03-06T15:57:08.152Z,55.87
2023-03-06T15:59:42.936Z,55.78
2023-03-06T16:02:18.534Z,55.78
2023-03-06T16:04:46.967Z,55.86
2023-03-06T16:07:15.064Z,55.89
2023-03-06T16:09:43.554Z,55.95
2023-03-06T16:12:17.918Z,55.88
2023-03-06T16:14:47.680Z,56.02
2023-03-06T16:17:16.002Z,55.98
2023-03-06T16:19:44.189Z,56.09
2023-03-06T16:22:12.249Z,56.10
2023-03-06T16:24:40.163Z,56.08
2023-03-06T16:27:17.630Z,56.19
2023-03-06T16:29:45.554Z,56.23
2023-03-06T16:32:13.546Z,56.40
2023-03-06T16:34:41.694Z,56.40
2023-03-06T16:37:12.925Z,56.54
2023-03-06T16:39:40.862Z,56.52
2023-03-06T16:42:08.889Z,56.54
2023-03-06T16:44:36.882Z,56.68
2023-03-06T16:47:04.899Z,56.68
2023-03-06T16:49:32.862Z,56.65
2023-03-06T16:52:01.029Z,56.84
2023-03-06T16:54:28.939Z,56.77
2023-03-06T16:56:57.218Z,56.96
2023-03-06T16:59:25.409Z,56.88
2023-03-06T17:01:53.276Z,57.10
2023-03-06T17:04:21.311Z,57.12
2023-03-06T17:06:49.266Z,57.15
2023-03-06T17:09:17.464Z,57.25
2023-03-06T17:11:46.804Z,57.25
2023-03-06T17:14:15.011Z,57.28
2023-03-06T17:16:43.111Z,57.56
2023-03-06T17:19:16.297Z,57.60
2023-03-06T17:21:44.351Z,57.68
2023-03-06T17:24:12.296Z,57.82
2023-03-06T17:26:40.269Z,57.67
2023-03-06T17:29:09.567Z,57.94
2023-03-06T17:31:37.801Z,58.05
2023-03-06T17:34:05.764Z,58.00
2023-03-06T17:36:34.585Z,57.97
2023-03-06T17:39:03.428Z,58.15
2023-03-06T17:41:32.879Z,58.24
2023-03-06T17:44:01.899Z,58.40
2023-03-06T17:46:32.273Z,58.51
2023-03-06T17:49:00.470Z,58.52
2023-03-06T17:51:28.634Z,58.56
2023-03-06T17:53:57.458Z,58.71
2023-03-06T17:56:26.340Z,58.72
2023-03-06T17:58:54.605Z,58.79
2023-03-06T18:01:27.593Z,58.91
2023-03-06T18:03:56.299Z,58.94
2023-03-06T18:06:27.517Z,58.97
2023-03-06T18:08:55.512Z,59.02
2023-03-06T18:11:23.502Z,59.07
2023-03-06T18:13:51.558Z,59.09
2023-03-06T18:16:23.031Z,59.19
2023-03-06T18:18:53.006Z,59.38
2023-03-06T18:21:21.744Z,59.59
2023-03-06T18:23:50.602Z,59.63
2023-03-06T18:26:25.395Z,59.69
2023-03-06T18:29:01.298Z,59.83
2023-03-06T18:31:34.428Z,59.86
2023-03-06T18:34:09.262Z,59.82
2023-03-06T18:36:37.934Z,59.95
2023-03-06T18:39:08.914Z,60.05
2023-03-06T18:41:37.776Z,60.08
2023-03-06T18:44:06.573Z,60.19
2023-03-06T18:46:37.628Z,60.11
2023-03-06T18:49:06.045Z,60.29
2023-03-06T18:51:34.763Z,60.23
2023-03-06T18:54:04.329Z,60.28
2023-03-06T18:56:33.113Z,60.36
2023-03-06T18:59:04.925Z,60.39
2023-03-06T19:01:34.462Z,60.66
2023-03-06T19:04:04.614Z,60.65
2023-03-06T19:06:33.169Z,60.69
2023-03-06T19:09:02.303Z,60.85
2023-03-06T19:11:31.013Z,60.84
2023-03-06T19:13:59.842Z,60.96
2023-03-06T19:16:29.657Z,60.99
2023-03-06T19:18:58.066Z,61.15
2023-03-06T19:21:27.704Z,61.35
2023-03-06T19:23:57.246Z,61.30
2023-03-06T19:26:25.300Z,61.46
2023-03-06T19:28:53.197Z,61.39
2023-03-06T19:31:25.273Z,61.65
2023-03-06T19:33:54.930Z,61.70
2023-03-06T19:36:26.922Z,61.74
2023-03-06T19:38:56.715Z,61.77
2023-03-06T19:41:25.483Z,61.83
2023-03-06T19:43:55.979Z,61.92
2023-03-06T19:46:24.895Z,61.88
2023-03-06T19:48:58.790Z,61.95
2023-03-06T19:51:27.453Z,62.01
2023-03-06T19:53:56.972Z,62.05
2023-03-06T19:56:28.317Z,62.05
2023-03-06T19:58:56.772Z,62.11
2023-03-06T20:01:26.375Z,62.25
2023-03-06T20:03:59.395Z,62.41
2023-03-06T20:06:30.291Z,62.39
2023-03-06T20:08:58.443Z,62.52
2023-03-06T20:11:29.967Z,62.31
2023-03-06T20:14:00.137Z,62.52
2023-03-06T20:16:29.124Z,62.71
2023-03-06T20:19:00.201Z,62.88
2023-03-06T20:21:30.762Z,63.02
2023-03-06T20:23:59.124Z,63.40
2023-03-06T20:26:28.599Z,63.73
2023-03-06T20:28:57.129Z,63.90
2023-03-06T20:31:27.475Z,63.97
2023-03-06T20:33:57.523Z,64.03
2023-03-06T20:36:31.325Z,64.26
2023-03-06T20:39:01.383Z,64.60
2023-03-06T20:41:31.416Z,64.82
2023-03-06T20:44:02.539Z,65.07
2023-03-06T20:46:31.261Z,65.21
2023-03-06T20:48:59.669Z,65.30
2023-03-06T20:51:31.549Z,65.46
2023-03-06T20:54:01.346Z,65.45
2023-03-06T20:56:32.185Z,65.46
2023-03-06T20:59:00.456Z,65.61
2023-03-06T21:01:38.371Z,65.62
2023-03-06T21:04:07.026Z,65.84
2023-03-06T21:06:34.927Z,65.88
2023-03-06T21:09:04.863Z,65.99
2023-03-06T21:11:34.723Z,66.25
2023-03-06T21:14:03.161Z,66.34
2023-03-06T21:16:31.666Z,66.32
2023-03-06T21:19:00.497Z,66.31
2023-03-06T21:21:31.416Z,66.42
2023-03-06T21:24:00.630Z,66.73
2023-03-06T21:26:31.488Z,67.03
2023-03-06T21:28:59.467Z,66.94
2023-03-06T21:31:28.710Z,67.03
2023-03-06T21:33:57.476Z,67.23
2023-03-06T21:36:26.065Z,67.14
2023-03-06T21:38:54.652Z,67.19
2023-03-06T21:41:28.580Z,67.31
2023-03-06T21:43:58.461Z,67.47
2023-03-06T21:46:27.690Z,67.50
2023-03-06T21:48:56.634Z,67.52
2023-03-06T21:51:25.445Z,67.57
2023-03-06T21:53:54.523Z,67.64
2023-03-06T21:56:25.554Z,67.79
2023-03-06T21:58:54.339Z,67.75
2023-03-06T22:01:25.553Z,67.84
2023-03-06T22:03:53.607Z,67.99
2023-03-06T22:06:26.971Z,67.94
2023-03-06T22:08:56.193Z,68.11
2023-03-06T22:11:25.450Z,68.33
2023-03-06T22:13:53.552Z,68.33
2023-03-06T22:16:21.797Z,68.16
2023-03-06T22:18:51.440Z,68.11
2023-03-06T22:21:21.923Z,68.28
2023-03-06T22:23:51.481Z,68.38
2023-03-06T22:26:19.847Z,68.35
2023-03-06T22:28:47.756Z,68.17
2023-03-06T22:31:19.286Z,68.29
2023-03-06T22:33:49.835Z,68.19
2023-03-06T22:36:18.359Z,68.29
2023-03-06T22:38:47.662Z,68.26
2023-03-06T22:41:17.378Z,68.37
2023-03-06T22:43:45.241Z,68.47
2023-03-06T22:46:16.316Z,68.51
2023-03-06T22:48:44.729Z,68.52
2023-03-06T22:51:16.154Z,68.53
2023-03-06T22:53:44.993Z,68.71
2023-03-06T22:56:15.874Z,68.64
2023-03-06T22:58:44.995Z,68.80
2023-03-06T23:01:16.444Z,68.80
2023-03-06T23:03:47.130Z,68.92
2023-03-06T23:06:18.390Z,68.98
2023-03-06T23:09:10.750Z,69.00
2023-03-06T23:11:57.128Z,69.14
2023-03-06T23:14:44.901Z,69.21
2023-03-06T23:17:31.510Z,69.34
2023-03-06T23:20:18.419Z,69.37
2023-03-06T23:23:05.050Z,69.49
2023-03-06T23:25:42.665Z,69.54
2023-03-06T23:28:11.417Z,69.50
2023-03-06T23:30:40.280Z,69.51
2023-03-06T23:33:09.040Z,69.68
2023-03-06T23:35:39.124Z,69.74
2023-03-06T23:38:07.364Z,69.86
2023-03-06T23:40:36.899Z,69.94
2023-03-06T23:43:05.247Z,69.89
2023-03-06T23:45:33.408Z,69.96
2023-03-06T23:48:01.260Z,70.12
2023-03-06T23:50:29.205Z,70.14
2023-03-06T23:52:57.063Z,70.11
2023-03-06T23:55:24.931Z,70.09
2023-03-06T23:57:52.825Z,70.07
